»·PEaware :: DAL1260 KGEG-KSLC

DAL1260 :: KGEG-KSLC

FLIGHT INFORMATION

Flight Status: Arrived
Operator:
Delta Air Lines
More flights by this operator :: More flights under this callsign
Pilot: John C. (18682)
Aircraft: AIRBUS A320
(A320)
More flights by this aircraft type
Origin: KGEG Spokane Intl
United States
Destination: KSLC Salt Lake City Intl
United States
More flights between these airports :: More routes between these airports
Route: DNJ BYI SKEES5
File this flight plan on PilotEdge
Remarks:
Altitude:
(Current/Filed)
37,000ft
Speed:
(Current/Filed)
454kts
Departed: 22-May-18 04:01 PM
Arrived: 22-May-18 05:41 PM
Distance/Time
Traveled:
474nm/1:40
Distance/Time
To Go:
Arrived

Flight Plot

Page will automatically refresh every two minutes.

Flight plan parsing failed; only flown route is shown


Map Options




Map Legend


Flown Route
Filed Route
Departure Airport
Arrival Airport
Navaid (VOR, NDB)
Fix

Horizontal Profiles

Position Reports

Time Latitude Longitude Heading Altitude Ground
Speed
22-May-18 15:31 47.623929 -117.535913 3 2363ft 0kts
22-May-18 15:32 47.623929 -117.535913 3 2363ft 0kts
22-May-18 15:33 47.623929 -117.535913 3 2363ft 0kts
22-May-18 15:34 47.623929 -117.535913 3 2363ft 0kts
22-May-18 15:35 47.623929 -117.535913 3 2363ft 0kts
22-May-18 15:36 47.623929 -117.535913 3 2363ft 0kts
22-May-18 15:37 47.623929 -117.535913 3 2363ft 0kts
22-May-18 15:38 47.623929 -117.535913 3 2363ft 0kts
22-May-18 15:39 47.623929 -117.535913 3 2363ft 0kts
22-May-18 15:40 47.623929 -117.535913 3 2363ft 0kts
22-May-18 15:41 47.623929 -117.535913 3 2363ft 0kts
22-May-18 15:42 47.623929 -117.535913 3 2363ft 0kts
22-May-18 15:43 47.623929 -117.535913 3 2363ft 0kts
22-May-18 15:44 47.623929 -117.535913 3 2363ft 0kts
22-May-18 15:45 47.623929 -117.535913 3 2363ft 0kts
22-May-18 15:46 47.623929 -117.535913 3 2363ft 0kts
22-May-18 15:47 47.623929 -117.535913 3 2363ft 0kts
22-May-18 15:48 47.623776 -117.535927 3 2364ft 2kts
22-May-18 15:49 47.623241 -117.536111 30 2364ft 2kts
22-May-18 15:50 47.623019 -117.536385 47 2365ft 0kts
22-May-18 15:51 47.623019 -117.536385 47 2365ft 0kts
22-May-18 15:52 47.624221 -117.534281 45 2362ft 15kts
22-May-18 15:53 47.625130 -117.532548 113 2359ft 0kts
22-May-18 15:54 47.625130 -117.532548 113 2359ft 0kts
22-May-18 15:55 47.625130 -117.532548 113 2359ft 0kts
22-May-18 15:56 47.623522 -117.533886 224 2362ft 17kts
22-May-18 15:57 47.619598 -117.539801 225 2369ft 23kts
22-May-18 15:58 47.615251 -117.546348 224 2378ft 24kts
22-May-18 15:59 47.611426 -117.551648 170 2385ft 6kts
22-May-18 16:00 47.610330 -117.549753 59 2387ft 10kts
22-May-18 16:01 47.631310 -117.519007 39 3374ft 191kts
22-May-18 16:02 47.676486 -117.460283 40 6229ft 255kts
22-May-18 16:03 47.735327 -117.384869 40 9482ft 292kts
22-May-18 16:04 47.794734 -117.300727 63 11641ft 346kts
22-May-18 16:05 47.769659 -117.171681 147 14549ft 367kts
22-May-18 16:06 47.669276 -117.130714 165 17221ft 386kts
22-May-18 16:07 47.562957 -117.094706 165 19617ft 400kts
22-May-18 16:08 47.452703 -117.057785 165 21748ft 414kts
22-May-18 16:09 47.339244 -117.020010 165 23653ft 427kts
22-May-18 16:10 47.222152 -116.981210 165 25382ft 439kts
22-May-18 16:11 47.101753 -116.941501 165 26951ft 450kts
22-May-18 16:12 46.979117 -116.901245 165 28374ft 460kts
22-May-18 16:13 46.853623 -116.860241 164 29685ft 468kts
22-May-18 16:14 46.725379 -116.818534 165 30794ft 477kts
22-May-18 16:15 46.596838 -116.776930 165 32240ft 475kts
22-May-18 16:16 46.468283 -116.735535 165 33522ft 474kts
22-May-18 16:17 46.339885 -116.694396 165 34755ft 473kts
22-May-18 16:18 46.212356 -116.653732 165 35941ft 470kts
22-May-18 16:19 46.085475 -116.613464 165 36919ft 469kts
22-May-18 16:20 45.958756 -116.573444 165 37015ft 468kts
22-May-18 16:21 45.832437 -116.533713 165 37027ft 468kts
22-May-18 16:22 45.705423 -116.493969 165 37028ft 469kts
22-May-18 16:23 45.578581 -116.454459 165 37029ft 469kts
22-May-18 16:24 45.451422 -116.415034 165 37029ft 469kts
22-May-18 16:25 45.324490 -116.375859 165 37094ft 469kts
22-May-18 16:26 45.198082 -116.337026 165 37122ft 469kts
22-May-18 16:27 45.070894 -116.298136 165 37130ft 469kts
22-May-18 16:28 44.944687 -116.259717 165 37168ft 463kts
22-May-18 16:29 44.820780 -116.222159 165 37121ft 458kts
22-May-18 16:30 44.710660 -116.143241 138 37085ft 448kts
22-May-18 16:31 44.613899 -116.034873 138 37083ft 446kts
22-May-18 16:32 44.517026 -115.927113 138 37089ft 446kts
22-May-18 16:33 44.419946 -115.819604 139 37108ft 447kts
22-May-18 16:34 44.322384 -115.712023 139 37124ft 448kts
22-May-18 16:35 44.227098 -115.607400 138 37051ft 449kts
22-May-18 16:36 44.129115 -115.500275 138 36986ft 449kts
22-May-18 16:37 44.031095 -115.393575 138 37002ft 449kts
22-May-18 16:38 43.933550 -115.287848 139 37044ft 449kts
22-May-18 16:39 43.835962 -115.182525 139 37084ft 449kts
22-May-18 16:40 43.738104 -115.077358 139 37102ft 447kts
22-May-18 16:41 43.641183 -114.973633 139 37100ft 442kts
22-May-18 16:42 43.545190 -114.871336 139 37067ft 437kts
22-May-18 16:43 43.449594 -114.769885 139 37034ft 435kts
22-May-18 16:44 43.354357 -114.669229 139 37038ft 436kts
22-May-18 16:45 43.258767 -114.568613 139 37057ft 436kts
22-May-18 16:46 43.162931 -114.468140 139 37059ft 437kts
22-May-18 16:47 43.066428 -114.367377 139 37034ft 437kts
22-May-18 16:48 42.970093 -114.267198 140 37021ft 439kts
22-May-18 16:49 42.873527 -114.167182 140 37020ft 441kts
22-May-18 16:50 42.776000 -114.066580 140 37034ft 442kts
22-May-18 16:51 42.678530 -113.966438 140 37042ft 442kts
22-May-18 16:52 42.581969 -113.866454 137 37037ft 441kts
22-May-18 16:53 42.494995 -113.751400 133 37032ft 440kts
22-May-18 16:54 42.408805 -113.636187 133 36815ft 438kts
22-May-18 16:55 42.322854 -113.521746 133 36179ft 438kts
22-May-18 16:56 42.236828 -113.407670 133 35216ft 440kts
22-May-18 16:57 42.150384 -113.293512 133 34265ft 442kts
22-May-18 16:58 42.063278 -113.178939 133 33309ft 443kts
22-May-18 16:59 41.975592 -113.064085 134 30355ft 451kts
22-May-18 17:00 41.888952 -112.951074 134 27495ft 447kts
22-May-18 17:01 41.805733 -112.842817 133 25102ft 413kts
22-May-18 17:02 41.726348 -112.740012 133 22865ft 396kts
22-May-18 17:03 41.648438 -112.639548 133 20584ft 386kts
22-May-18 17:04 41.572618 -112.542072 133 18315ft 376kts
22-May-18 17:05 41.490687 -112.451884 144 17073ft 398kts
22-May-18 17:06 41.393960 -112.380926 149 17070ft 399kts
22-May-18 17:07 41.298363 -112.313271 150 14247ft 385kts
22-May-18 17:08 41.207382 -112.247606 149 12908ft 368kts
22-May-18 17:09 41.136653 -112.193562 149 12437ft 340kts
22-May-18 17:10 41.052774 -112.142107 169 11937ft 335kts
22-May-18 17:11 40.962067 -112.122677 170 11420ft 327kts
22-May-18 17:12 40.878244 -112.106874 175 11076ft 292kts
22-May-18 17:13 40.799096 -112.098796 176 11061ft 268kts
22-May-18 17:14 40.728026 -112.092083 176 11059ft 249kts
22-May-18 17:15 40.660417 -112.085560 176 11057ft 244kts
22-May-18 17:16 40.595751 -112.079259 176 11051ft 217kts
22-May-18 17:17 40.535536 -112.073343 176 11048ft 219kts
22-May-18 17:18 40.474908 -112.068037 176 11053ft 219kts
22-May-18 17:19 40.446697 -112.008500 92 10818ft 218kts
22-May-18 17:20 40.476218 -111.947267 25 9088ft 223kts
22-May-18 17:21 40.537209 -111.945526 356 9034ft 215kts
22-May-18 17:22 40.595585 -111.952359 352 8717ft 209kts
22-May-18 17:23 40.653187 -111.959022 351 8042ft 213kts
22-May-18 17:24 40.712129 -111.966614 351 9432ft 238kts
22-May-18 17:25 40.750612 -112.030621 272 11038ft 250kts
22-May-18 17:26 40.723343 -112.100940 187 11062ft 244kts
22-May-18 17:27 40.655952 -112.104321 182 11058ft 244kts
22-May-18 17:28 40.588400 -112.107225 182 11063ft 244kts
22-May-18 17:29 40.520835 -112.110320 182 11070ft 245kts
22-May-18 17:30 40.453158 -112.114313 182 11068ft 245kts
22-May-18 17:31 40.393078 -112.089824 112 11053ft 249kts
22-May-18 17:32 40.389233 -111.999757 92 11011ft 248kts
22-May-18 17:33 40.429024 -111.937053 10 10198ft 240kts
22-May-18 17:34 40.488840 -111.939964 356 9084ft 214kts
22-May-18 17:35 40.546681 -111.946662 356 8726ft 208kts
22-May-18 17:36 40.601506 -111.953018 351 7634ft 194kts
22-May-18 17:37 40.652072 -111.958902 350 6649ft 179kts
22-May-18 17:38 40.696345 -111.964024 348 5783ft 138kts
22-May-18 17:39 40.732869 -111.968241 348 5075ft 132kts
22-May-18 17:40 40.767712 -111.972285 349 4390ft 127kts
22-May-18 17:41 40.790252 -111.974972 349 4236ft 22kts
22-May-18 17:42 40.792270 -111.976178 317 4236ft 3kts
22-May-18 17:43 40.790610 -111.977214 194 4236ft 12kts
22-May-18 17:44 40.789919 -111.981936 264 4236ft 10kts
22-May-18 17:45 40.788373 -111.982587 110 4236ft 5kts
22-May-18 17:46 40.788269 -111.982050 103 4236ft 0kts
22-May-18 17:47 40.788269 -111.982050 103 4236ft 0kts
22-May-18 17:48 40.788269 -111.982050 103 4236ft 0kts
22-May-18 17:49 40.788269 -111.982050 103 4236ft 0kts

Navigation Log

Ident Type
Flight plan parsing failed, navigation log unavailable